M I D A S
Marine Information and Data Acquisition System
Tripno 1782 of the Zeeleeuw from 2009-09-22 06:49:20 to 2009-09-22 14:29:12
Back to CruiseResearch ActivitiesStationsMapUnderway DataData graphs

EquipmentUnitsComment
TimeDGPSUTC
LatitudeDGPSDM.mWGS84
LongitudeDGPSDM.mWGS84
HeadingGyrodeg 
SOGDGPSknotsSpeed over ground
COGDGPSdegCourse over ground
DepthEcho soundermeters200 kHz
Missing or incorrect values are displayed as -999
Navigation data collected by the RV Zeeleeuw from 2009-09-22 06:50:13 to 2009-09-22 14:35:28
Time Latitude Longitude Heading SOG COG Depth
2009-09-22 06:51:19 51°13.662 2°55.96 130 -999 203 7.1
2009-09-22 06:52:19 51°13.662 2°55.96 129.7 -999 51 7.1
2009-09-22 06:53:19 51°13.662 2°55.96 129.6 -999 205 7.1
2009-09-22 06:54:19 51°13.663 2°55.959 128.9 -999 80 7.1
2009-09-22 06:55:19 51°13.661 2°55.96 115.6 0.1 200 7
2009-09-22 06:56:20 51°13.669 2°55.931 113 2.9 296 -999
2009-09-22 06:57:22 51°13.692 2°55.836 98.7 3.7 282 -999
2009-09-22 06:58:22 51°13.692 2°55.75 71.1 2.6 259 -999
2009-09-22 06:59:22 51°13.699 2°55.734 26.3 1.5 9 12.2
2009-09-22 07:00:21 51°13.75 2°55.703 334.7 5.6 332 11
2009-09-22 07:01:20 51°13.862 2°55.61 335.5 8.7 334 10.7
2009-09-22 07:02:19 51°13.995 2°55.506 336.9 9.3 335 10.4
2009-09-22 07:03:18 51°14.136 2°55.395 333.2 9.8 331 10.2
2009-09-22 07:04:19 51°14.267 2°55.232 317.1 10.2 315 10.1
2009-09-22 07:05:18 51°14.392 2°55.025 320.9 11.2 319 9.3
2009-09-22 07:06:18 51°14.544 2°54.85 338.3 11.2 329 9.1
2009-09-22 07:07:18 51°14.706 2°54.692 337.3 11.4 329 8.8
2009-09-22 07:08:18 51°14.868 2°54.538 336.2 11.3 329 8.8
2009-09-22 07:09:18 51°15.032 2°54.393 337.3 11.3 332 9.6
2009-09-22 07:10:19 51°15.201 2°54.249 337.6 11.4 332 9.8
2009-09-22 07:11:19 51°15.369 2°54.109 337.1 11.4 331 8.8
2009-09-22 07:12:19 51°15.533 2°53.957 333.5 11.5 327 9.2
2009-09-22 07:13:19 51°15.692 2°53.789 333.3 11.5 327 10.1
2009-09-22 07:14:19 51°15.852 2°53.618 333.4 11.6 327 10.4
2009-09-22 07:15:19 51°16.011 2°53.447 332 11.6 325 10.7
2009-09-22 07:16:19 51°16.172 2°53.276 333.3 11.6 326 11
2009-09-22 07:17:19 51°16.333 2°53.106 333.5 11.6 326 11
2009-09-22 07:18:19 51°16.496 2°52.936 334 11.7 327 10.8
2009-09-22 07:19:19 51°16.66 2°52.774 333.3 11.5 328 10.2
2009-09-22 07:20:19 51°16.824 2°52.611 335.4 11.5 330 8.8
2009-09-22 07:21:19 51°16.992 2°52.471 339 11.3 333 8.6
2009-09-22 07:22:19 51°17.162 2°52.338 339.1 11.4 334 9.1
2009-09-22 07:23:19 51°17.337 2°52.228 351.3 11.1 346 10.3
2009-09-22 07:24:19 51°17.521 2°52.189 359.4 11.2 354 10.4
2009-09-22 07:25:19 51°17.707 2°52.164 0.1 11.1 355 10.3
2009-09-22 07:26:19 51°17.892 2°52.134 359.3 11.2 353 10.3
2009-09-22 07:27:19 51°18.076 2°52.097 358 11.2 353 10.3
2009-09-22 07:28:19 51°18.26 2°52.062 359.6 11.1 353 10.1
2009-09-22 07:29:19 51°18.446 2°52.023 358.6 11.2 352 10.4
2009-09-22 07:30:19 51°18.631 2°51.979 357.4 11.3 351 11.5
2009-09-22 07:31:19 51°18.816 2°51.934 357.1 11.2 352 12.7
2009-09-22 07:32:19 51°19 2°51.89 359 11.2 352 13.2
2009-09-22 07:33:19 51°19.184 2°51.848 359 11.1 352 13.3
2009-09-22 07:34:19 51°19.368 2°51.804 358.9 11.2 351 14.6
2009-09-22 07:35:19 51°19.551 2°51.763 358.9 11.2 351 14.7
2009-09-22 07:36:19 51°19.734 2°51.724 1.2 11.2 352 14.5
2009-09-22 07:37:19 51°19.92 2°51.699 1.6 11.2 355 13.8
2009-09-22 07:38:19 51°20.105 2°51.668 1.5 11.3 354 12.2
2009-09-22 07:39:19 51°20.29 2°51.642 1.5 11 354 11.6
2009-09-22 07:40:19 51°20.479 2°51.617 1.9 11.4 355 13.2
2009-09-22 07:41:19 51°20.666 2°51.59 0.9 11.3 355 13.3
2009-09-22 07:42:19 51°20.853 2°51.567 1.4 11.2 357 15.2
2009-09-22 07:43:19 51°21.038 2°51.543 0.9 11.1 357 17.3
2009-09-22 07:44:19 51°21.22 2°51.52 1 10.9 356 20
2009-09-22 07:45:19 51°21.401 2°51.493 0.8 10.9 356 21.4
2009-09-22 07:46:19 51°21.582 2°51.466 0.1 10.9 355 22.3
2009-09-22 07:47:19 51°21.765 2°51.442 1.6 11 356 23.1
2009-09-22 07:48:19 51°21.947 2°51.416 2.5 11.1 355 23
2009-09-22 07:49:19 51°22.133 2°51.391 1.7 11.3 357 22.2
2009-09-22 07:50:19 51°22.319 2°51.367 2.1 11.3 354 22.1
2009-09-22 07:51:19 51°22.504 2°51.348 2.8 11.3 358 21.3
2009-09-22 07:52:19 51°22.689 2°51.324 0.5 11.1 357 21.4
2009-09-22 07:53:19 51°22.873 2°51.296 1.8 11.2 353 20.6
2009-09-22 07:54:19 51°23.058 2°51.274 1.8 11.1 358 15.9
2009-09-22 07:55:19 51°23.241 2°51.256 2 11.2 357 13.2
2009-09-22 07:56:19 51°23.426 2°51.238 1.5 11.3 356 14.5
2009-09-22 07:57:19 51°23.61 2°51.219 2.4 11.1 354 15.2
2009-09-22 07:58:19 51°23.793 2°51.196 1.2 11 353 17.4
2009-09-22 07:59:19 51°23.974 2°51.174 1.5 10.9 356 18.9
2009-09-22 08:00:19 51°24.158 2°51.15 1.3 11.1 355 19.6
2009-09-22 08:01:19 51°24.34 2°51.127 1 10.8 357 20.9
2009-09-22 08:02:19 51°24.521 2°51.106 1.9 10.9 356 20.3
2009-09-22 08:03:19 51°24.702 2°51.084 0.8 11 355 21.4
2009-09-22 08:04:19 51°24.883 2°51.059 2.2 10.7 354 21.7
2009-09-22 08:05:19 51°25.062 2°51.034 1.7 10.8 356 21.6
2009-09-22 08:06:19 51°25.241 2°51.009 1.2 10.8 356 20.9
2009-09-22 08:07:19 51°25.418 2°50.979 1.1 10.8 355 22
2009-09-22 08:08:19 51°25.596 2°50.952 1.2 10.9 355 22.2
2009-09-22 08:09:19 51°25.775 2°50.923 1.1 10.8 357 21.7
2009-09-22 08:10:19 51°25.954 2°50.897 1.7 10.8 358 22.4
2009-09-22 08:11:19 51°26.134 2°50.871 2 10.9 355 22.4
2009-09-22 08:12:19 51°26.314 2°50.845 0.8 10.7 356 22.7
2009-09-22 08:13:19 51°26.494 2°50.818 0.8 10.8 358 21.6
2009-09-22 08:14:19 51°26.675 2°50.789 359.9 11 356 22
2009-09-22 08:15:19 51°26.857 2°50.766 0.8 11 358 20.8
2009-09-22 08:16:19 51°27.038 2°50.746 1.9 10.9 356 18.4
2009-09-22 08:17:19 51°27.218 2°50.728 0.7 10.8 358 17.4
2009-09-22 08:18:19 51°27.4 2°50.711 1.8 10.8 355 19.9
2009-09-22 08:19:19 51°27.579 2°50.692 0.5 10.8 356 21.9
2009-09-22 08:20:19 51°27.758 2°50.672 1.1 10.9 355 22.9
2009-09-22 08:21:19 51°27.939 2°50.653 1.9 10.7 352 25.2
2009-09-22 08:22:19 51°28.119 2°50.633 0.5 10.8 355 25.7
2009-09-22 08:23:19 51°28.297 2°50.613 1.2 10.7 358 26.9
2009-09-22 08:24:19 51°28.475 2°50.586 0.7 10.7 351 25.8
2009-09-22 08:25:19 51°28.65 2°50.562 4.2 10.4 354 26.6
2009-09-22 08:26:19 51°28.819 2°50.487 344.2 10.7 338 25.1
2009-09-22 08:27:19 51°28.983 2°50.372 342.3 10.8 335 25
2009-09-22 08:28:19 51°29.15 2°50.258 343.4 11.1 335 28.5
2009-09-22 08:29:19 51°29.323 2°50.183 359.8 10.5 -999 29.2
2009-09-22 08:30:19 51°29.484 2°50.246 31.4 10 37 29.2
2009-09-22 08:31:19 51°29.6 2°50.441 57.3 10.4 57 29.4
2009-09-22 08:32:19 51°29.662 2°50.695 70.8 10.1 72 30.2
2009-09-22 08:33:19 51°29.71 2°50.954 73.6 10.2 75 28.6
2009-09-22 08:34:19 51°29.752 2°51.216 73.4 10 80 28.1
2009-09-22 08:35:19 51°29.794 2°51.478 73 10.1 76 28.3
2009-09-22 08:36:19 51°29.839 2°51.743 75.2 10.2 72 29.4
2009-09-22 08:37:19 51°29.883 2°52.003 70.9 10.1 74 29.6
2009-09-22 08:38:19 51°29.927 2°52.265 72.7 10.1 77 28.7
2009-09-22 08:39:19 51°29.971 2°52.531 74.1 10.2 78 27.4
2009-09-22 08:40:19 51°30.013 2°52.795 74.1 10.3 81 27.6
2009-09-22 08:41:19 51°30.057 2°53.057 75.6 10.1 79 27.3
2009-09-22 08:42:19 51°30.099 2°53.321 72.9 10.2 74 28.6
2009-09-22 08:43:19 51°30.165 2°53.567 63.3 10.1 64 29.3
2009-09-22 08:44:19 51°30.243 2°53.808 61.9 10.2 62 30.7
2009-09-22 08:45:19 51°30.321 2°54.047 65.8 10.1 58 32.1
2009-09-22 08:46:19 51°30.393 2°54.287 67.3 10.2 69 33.7
2009-09-22 08:47:18 51°30.456 2°54.531 69.2 10.1 67 33.1
2009-09-22 08:48:19 51°30.515 2°54.785 67.7 10.1 74 33.3
2009-09-22 08:49:19 51°30.574 2°55.038 68.3 10.1 65 34.7
2009-09-22 08:50:19 51°30.633 2°55.288 68.5 10.3 70 36.3
2009-09-22 08:51:19 51°30.7 2°55.535 64.6 10.2 68 36.6
2009-09-22 08:52:19 51°30.764 2°55.781 65.6 10.1 72 35.9
2009-09-22 08:53:19 51°30.831 2°56.027 64.4 9.9 64 33.4
2009-09-22 08:54:19 51°30.907 2°56.261 61.3 9.8 61 32.2
2009-09-22 08:55:19 51°30.989 2°56.488 58.9 9.8 57 32
2009-09-22 08:56:19 51°31.079 2°56.709 52.8 9.8 56 31.7
2009-09-22 08:57:19 51°31.175 2°56.921 53.5 9.7 56 30.8
2009-09-22 08:58:19 51°31.275 2°57.12 50.3 9.8 45 31.6
2009-09-22 08:59:19 51°31.375 2°57.323 51 10 49 32.1
2009-09-22 09:00:19 51°31.478 2°57.525 49.1 9.7 50 32.4
2009-09-22 09:01:19 51°31.59 2°57.713 44.6 9.9 46 34.1
2009-09-22 09:02:19 51°31.705 2°57.902 48.1 10.1 42 33.8
2009-09-22 09:03:19 51°31.817 2°58.096 48.5 10 42 32.3
2009-09-22 09:04:19 51°31.929 2°58.292 48.6 10 46 36.3
2009-09-22 09:05:19 51°32.044 2°58.484 45.6 10 45 35.7
2009-09-22 09:06:19 51°32.164 2°58.668 42.8 10.1 39 33.9
2009-09-22 09:07:19 51°32.292 2°58.832 40.1 9.6 34 32.5
2009-09-22 09:08:19 51°32.429 2°58.963 28.1 9.6 26 33.2
2009-09-22 09:09:19 51°32.572 2°59.079 26.4 9.7 16 32.3
2009-09-22 09:10:19 51°32.723 2°59.025 333.9 10.2 326 20.4
2009-09-22 09:11:19 51°32.865 2°58.883 332.9 10.1 328 13.1
2009-09-22 09:12:19 51°32.999 2°58.724 325.2 10.1 318 14.4
2009-09-22 09:13:19 51°33.12 2°58.537 321.4 10.2 317 15.6
2009-09-22 09:14:19 51°33.241 2°58.341 320.8 10.4 314 17
2009-09-22 09:15:19 51°33.356 2°58.136 316.7 10.1 309 17.9
2009-09-22 09:16:19 51°33.464 2°57.924 315 10.3 308 22.8
2009-09-22 09:17:19 51°33.571 2°57.707 314.5 10.7 309 22.8
2009-09-22 09:18:19 51°33.679 2°57.477 313.3 10.8 307 25.1
2009-09-22 09:19:19 51°33.782 2°57.243 312.3 10.7 306 25.1
2009-09-22 09:20:19 51°33.877 2°57.009 310 10.7 302 27.9
2009-09-22 09:21:19 51°33.972 2°56.766 309.8 10.8 303 27.4
2009-09-22 09:22:19 51°34.066 2°56.519 309.1 10.8 301 29.9
2009-09-22 09:23:19 51°34.145 2°56.27 302 10.8 293 29.8
2009-09-22 09:24:20 51°34.203 2°55.997 293.5 10.9 282 29.5
2009-09-22 09:25:19 51°34.21 2°55.703 273.6 11.2 261 28.4
2009-09-22 09:26:20 51°34.123 2°55.427 240.6 11.9 237 27.6
2009-09-22 09:27:19 51°34.007 2°55.17 238.8 12.2 236 29.3
2009-09-22 09:28:19 51°33.893 2°54.897 240.8 12.1 236 26.6
2009-09-22 09:29:19 51°33.783 2°54.62 242.3 12.2 237 28.5
2009-09-22 09:30:20 51°33.672 2°54.348 240.8 11.1 237 -999
2009-09-22 09:31:19 51°33.564 2°54.089 240.9 12 236 26.3
2009-09-22 09:32:19 51°33.45 2°53.817 239.9 12.5 237 26.4
2009-09-22 09:33:19 51°33.335 2°53.543 240.7 12.3 237 28.1
2009-09-22 09:34:19 51°33.222 2°53.268 239.5 12.2 235 26.5
2009-09-22 09:35:19 51°33.11 2°52.998 240.5 12 236 26.8
2009-09-22 09:36:19 51°32.995 2°52.727 239 12.1 235 28.3
2009-09-22 09:37:19 51°32.88 2°52.456 240.3 12.4 235 26.2
2009-09-22 09:38:19 51°32.762 2°52.182 240.8 12.4 236 29
2009-09-22 09:39:19 51°32.648 2°51.911 239.9 12.4 236 28.3
2009-09-22 09:40:20 51°32.532 2°51.636 240.8 11.9 236 30.4
2009-09-22 09:41:19 51°32.419 2°51.368 240.1 12.4 236 29.4
2009-09-22 09:42:19 51°32.303 2°51.092 240.4 12.5 236 29.9
2009-09-22 09:43:19 51°32.187 2°50.819 239.7 12.3 236 28.4
2009-09-22 09:44:19 51°32.07 2°50.541 241.1 12.5 237 26.9
2009-09-22 09:45:19 51°31.953 2°50.265 240.4 12.2 235 30
2009-09-22 09:46:19 51°31.839 2°49.988 240.1 12.3 236 27.4
2009-09-22 09:47:19 51°31.726 2°49.723 240.2 11.8 235 27.6
2009-09-22 09:48:19 51°31.612 2°49.458 240.7 12.6 237 29.4
2009-09-22 09:49:20 51°31.493 2°49.175 239.1 12.4 235 26.1
2009-09-22 09:50:19 51°31.38 2°48.906 240.8 12.2 237 28.3
2009-09-22 09:51:19 51°31.267 2°48.636 239.9 12.2 237 28.5
2009-09-22 09:52:19 51°31.152 2°48.365 239.5 12.4 235 28.8
2009-09-22 09:53:19 51°31.037 2°48.092 239.8 12.1 236 27.2
2009-09-22 09:54:19 51°30.922 2°47.818 240.3 12.5 236 28.5
2009-09-22 09:55:19 51°30.812 2°47.537 246.1 12.1 245 27.4
2009-09-22 09:56:19 51°30.812 2°47.246 298.5 10.9 287 27.5
2009-09-22 09:57:19 51°30.924 2°47.054 338.1 9.7 330 24.8
2009-09-22 09:58:19 51°31.079 2°46.992 3.6 9.6 358 27.1
2009-09-22 09:59:19 51°31.239 2°46.99 10.5 9.6 4 27.7
2009-09-22 10:00:19 51°31.397 2°47.017 13 9.6 11 28.4
2009-09-22 10:01:19 51°31.553 2°47.047 14.1 9.6 4 29
2009-09-22 10:02:19 51°31.707 2°47.084 17.4 9.4 11 29.2
2009-09-22 10:03:19 51°31.861 2°47.115 15.8 9.3 14 29.5
2009-09-22 10:04:19 51°32.017 2°47.133 14.6 9.5 -999 29
2009-09-22 10:05:19 51°32.173 2°47.157 15 9.4 6 29.5
2009-09-22 10:06:19 51°32.33 2°47.185 11.8 9.5 7 28.5
2009-09-22 10:07:19 51°32.485 2°47.213 11 9.2 5 31.4
2009-09-22 10:08:19 51°32.641 2°47.24 11.7 9.3 13 31.3
2009-09-22 10:09:19 51°32.798 2°47.266 10.6 9.4 4 29.4
2009-09-22 10:10:19 51°32.956 2°47.291 12.2 9.7 -999 31.6
2009-09-22 10:11:19 51°33.114 2°47.316 11.4 9.7 2 32.5
2009-09-22 10:12:19 51°33.273 2°47.316 0.9 9.6 352 33.3
2009-09-22 10:13:19 51°33.435 2°47.307 5.9 9.8 4 31.5
2009-09-22 10:14:19 51°33.597 2°47.302 5.3 10 358 29.3
2009-09-22 10:15:19 51°33.758 2°47.301 3.9 9.6 -999 30.6
2009-09-22 10:16:19 51°33.917 2°47.296 4 9.7 1 28.5
2009-09-22 10:17:19 51°34.078 2°47.294 4.5 9.5 1 29.9
2009-09-22 10:18:19 51°34.237 2°47.292 7.4 9.8 355 29.5
2009-09-22 10:19:19 51°34.394 2°47.311 8.8 9.5 8 29.1
2009-09-22 10:20:19 51°34.551 2°47.331 10.5 9.5 6 30.1
2009-09-22 10:21:19 51°34.709 2°47.347 8.6 9.8 1 29.8
2009-09-22 10:22:19 51°34.864 2°47.36 10.5 9.4 11 31.2
2009-09-22 10:23:19 51°35.02 2°47.392 13.7 9.4 7 33.5
2009-09-22 10:24:19 51°35.169 2°47.466 26.9 9.3 19 -999
2009-09-22 10:25:19 51°35.312 2°47.551 22.4 9.1 13 32.2
2009-09-22 10:26:19 51°35.457 2°47.631 21.1 9.3 12 32.9
2009-09-22 10:27:19 51°35.596 2°47.724 28.4 9.1 26 34.2
2009-09-22 10:28:19 51°35.736 2°47.83 31.8 9.2 28 36.6
2009-09-22 10:29:19 51°35.878 2°47.928 25.1 9.2 18 35
2009-09-22 10:30:19 51°36.019 2°48.027 25.7 9.3 18 38.6
2009-09-22 10:31:19 51°36.16 2°48.132 25.7 9.1 28 39.4
2009-09-22 10:32:19 51°36.303 2°48.227 23.7 9.2 18 37.2
2009-09-22 10:33:19 51°36.444 2°48.323 24.1 9.2 21 38.4
2009-09-22 10:34:19 51°36.588 2°48.417 25.2 9.6 22 39.1
2009-09-22 10:35:19 51°36.73 2°48.52 25.5 9.3 25 39.3
2009-09-22 10:36:15 51°36.862 2°48.61 25.3 9.2 20 38.1
2009-09-22 10:37:25 51°37.027 2°48.722 27.2 9.5 23 36.9
2009-09-22 10:38:25 51°37.17 2°48.817 23.6 9.5 24 39.1
2009-09-22 10:39:25 51°37.312 2°48.919 26.9 9.2 18 36.6
2009-09-22 10:40:25 51°37.451 2°49.023 27.7 9.2 26 37.5
2009-09-22 10:41:25 51°37.592 2°49.128 29.4 9.3 22 37.8
2009-09-22 10:42:25 51°37.729 2°49.236 28.8 9.3 32 37.2
2009-09-22 10:43:25 51°37.868 2°49.341 32.8 9.2 27 39.5
2009-09-22 10:44:25 51°38.008 2°49.447 24.8 9.2 21 36.6
2009-09-22 10:45:24 51°38.145 2°49.547 23.1 9.2 23 37.8
2009-09-22 10:46:25 51°38.288 2°49.654 26.7 9.7 28 39
2009-09-22 10:47:24 51°38.426 2°49.761 31.7 9.5 24 38.4
2009-09-22 10:48:25 51°38.567 2°49.881 30 9.5 25 36.9
2009-09-22 10:49:25 51°38.701 2°50.008 34.1 9.4 31 39.1
2009-09-22 10:50:25 51°38.839 2°50.129 32.9 9.5 23 37.6
2009-09-22 10:51:25 51°38.975 2°50.256 33.9 9.3 24 33.2
2009-09-22 10:52:25 51°39.114 2°50.375 32.8 9.5 30 35.4
2009-09-22 10:53:25 51°39.249 2°50.501 29.9 9.5 30 38.4
2009-09-22 10:54:25 51°39.387 2°50.628 33.1 9.8 34 38.1
2009-09-22 10:55:25 51°39.526 2°50.749 32 9.5 23 38.3
2009-09-22 10:56:25 51°39.663 2°50.874 32.7 9.5 27 33.5
2009-09-22 10:57:25 51°39.786 2°51.017 51 9.1 63 36.2
2009-09-22 10:58:25 51°39.742 2°51.252 127.8 10.7 144 32.6
2009-09-22 10:59:24 51°39.579 2°51.396 146.2 11.7 159 32.6
2009-09-22 11:00:25 51°39.406 2°51.55 145.9 11.9 156 31.8
2009-09-22 11:01:25 51°39.233 2°51.696 146.8 11.7 157 35.4
2009-09-22 11:02:24 51°39.059 2°51.823 156.2 11.6 164 34.8
2009-09-22 11:03:24 51°38.869 2°51.908 160.7 11.7 162 35.2
2009-09-22 11:04:24 51°38.681 2°51.998 149.5 11.6 153 35
2009-09-22 11:05:24 51°38.531 2°52.18 125.2 11 128 35.3
2009-09-22 11:06:24 51°38.441 2°52.426 110.4 10.7 113 34.9
2009-09-22 11:07:24 51°38.361 2°52.683 113.3 10.6 118 34.3
2009-09-22 11:08:24 51°38.285 2°52.944 110.9 10.6 112 31.7
2009-09-22 11:09:24 51°38.211 2°53.201 108.3 10.8 120 33.7
2009-09-22 11:10:24 51°38.136 2°53.462 109 10.7 110 31.9
2009-09-22 11:11:25 51°38.057 2°53.723 109.7 10.8 113 31.3
2009-09-22 11:12:24 51°37.983 2°53.981 105.5 10.7 119 25.8
2009-09-22 11:13:24 51°37.907 2°54.238 106.8 10.5 111 28
2009-09-22 11:14:24 51°37.828 2°54.497 111.1 10.7 114 25.9
2009-09-22 11:15:24 51°37.748 2°54.759 109.2 11.2 118 26.2
2009-09-22 11:16:24 51°37.634 2°54.993 132.9 11.5 144 24.6
2009-09-22 11:17:24 51°37.45 2°55.087 178.7 11.9 183 23.4
2009-09-22 11:18:25 51°37.284 2°54.945 222.7 11.5 218 -999
2009-09-22 11:19:25 51°37.137 2°54.738 227.4 11.9 224 23
2009-09-22 11:20:25 51°37.005 2°54.501 235.4 11.8 229 22.1
2009-09-22 11:21:24 51°36.881 2°54.26 235 11.9 230 22.2
2009-09-22 11:22:25 51°36.75 2°54.012 234.6 12 230 21.8
2009-09-22 11:23:26 51°36.62 2°53.767 233 11.7 228 21.8
2009-09-22 11:24:23 51°36.501 2°53.534 239 11.7 233 20.4
2009-09-22 11:25:27 51°36.396 2°53.264 245.3 11.4 240 22.4
2009-09-22 11:26:25 51°36.303 2°53.007 245.2 11.4 236 21.5
2009-09-22 11:27:25 51°36.209 2°52.744 245.7 11.4 241 23.9
2009-09-22 11:28:25 51°36.11 2°52.473 244.2 11.7 242 22.7
2009-09-22 11:29:25 51°36.011 2°52.201 245.4 11.5 241 23.9
2009-09-22 11:30:25 51°35.912 2°51.929 245.3 11.9 240 24.3
2009-09-22 11:31:24 51°35.819 2°51.667 245.4 11.8 241 22.2
2009-09-22 11:32:27 51°35.718 2°51.395 243.8 10.8 239 22.1
2009-09-22 11:33:25 51°35.627 2°51.147 244 11.5 239 24.2
2009-09-22 11:34:25 51°35.529 2°50.892 244.4 11.3 238 24.1
2009-09-22 11:35:25 51°35.432 2°50.623 246.8 11.6 243 24.4
2009-09-22 11:36:25 51°35.312 2°50.411 200.3 10.9 195 24.8
2009-09-22 11:37:25 51°35.167 2°50.545 122.3 10.9 133 26
2009-09-22 11:38:43 51°35.01 2°50.844 125.7 11.5 133 30
2009-09-22 11:39:43 51°34.881 2°51.068 126.9 11.3 137 29.2
2009-09-22 11:40:43 51°34.754 2°51.29 126.8 11.4 137 37.3
2009-09-22 11:41:43 51°34.632 2°51.513 123.5 11.3 134 37.4
2009-09-22 11:42:43 51°34.505 2°51.73 126.1 11.2 139 38.8
2009-09-22 11:43:42 51°34.382 2°51.944 125.7 11.2 142 38.4
2009-09-22 11:44:43 51°34.258 2°52.163 125.4 11.1 127 37.5
2009-09-22 11:45:43 51°34.132 2°52.379 122.9 11 133 34.7
2009-09-22 11:46:43 51°34.005 2°52.595 127 11.1 132 31.5
2009-09-22 11:47:44 51°33.879 2°52.815 125.8 11.3 135 32.4
2009-09-22 11:48:43 51°33.766 2°53.036 110.2 10.7 114 32.5
2009-09-22 11:49:43 51°33.822 2°53.239 28.8 8.9 19 31.8
2009-09-22 11:50:43 51°33.956 2°53.373 39.6 9.7 40 31.7
2009-09-22 11:51:43 51°34.066 2°53.566 52.6 10.2 55 30.7
2009-09-22 11:52:43 51°34.15 2°53.796 56.9 10.2 63 32.1
2009-09-22 11:53:43 51°34.236 2°54.027 58.1 9.8 57 31.6
2009-09-22 11:54:44 51°34.325 2°54.26 58.2 10.2 61 31.5
2009-09-22 11:55:43 51°34.412 2°54.486 54.5 10.2 53 29.9
2009-09-22 11:56:43 51°34.503 2°54.707 52.5 9.9 55 32.5
2009-09-22 11:57:43 51°34.595 2°54.935 53.6 10.2 57 32.1
2009-09-22 11:58:43 51°34.691 2°55.156 51.9 9.7 58 31.6
2009-09-22 11:59:43 51°34.792 2°55.374 52.2 10 53 33.4
2009-09-22 12:00:44 51°34.892 2°55.596 54.6 10.2 53 33.7
2009-09-22 12:01:43 51°34.984 2°55.815 52.3 10.2 57 32.8
2009-09-22 12:02:43 51°35.08 2°56.04 54.9 10.2 55 33
2009-09-22 12:03:44 51°35.179 2°56.267 53.4 10.1 50 35
2009-09-22 12:04:43 51°35.275 2°56.482 51 10.1 55 34.5
2009-09-22 12:05:43 51°35.373 2°56.707 52.2 10.2 57 35.3
2009-09-22 12:06:43 51°35.471 2°56.931 49.4 9.8 55 34.4
2009-09-22 12:07:43 51°35.568 2°57.147 52.4 10.1 60 34.2
2009-09-22 12:08:43 51°35.666 2°57.369 52.8 10.2 57 37.1
2009-09-22 12:09:44 51°35.767 2°57.596 53.9 10.6 51 35.9
2009-09-22 12:10:44 51°35.833 2°57.847 77.8 10.4 76 36.3
2009-09-22 12:11:43 51°35.774 2°58.099 128.6 11.2 131 36.9
2009-09-22 12:12:44 51°35.602 2°58.227 158 11.7 163 35.2
2009-09-22 12:13:44 51°35.418 2°58.314 162.9 11.6 160 31.3
2009-09-22 12:14:43 51°35.235 2°58.389 161.9 11.8 166 32.5
2009-09-22 12:15:43 51°35.048 2°58.465 164.7 11.5 161 31.7
2009-09-22 12:16:43 51°34.857 2°58.538 164.7 11.8 166 28.7
2009-09-22 12:17:43 51°34.667 2°58.613 164.6 11.8 165 29.2
2009-09-22 12:18:43 51°34.479 2°58.691 164.6 11.9 164 25.7
2009-09-22 12:19:43 51°34.288 2°58.766 162.7 11.8 166 21.4
2009-09-22 12:20:43 51°34.1 2°58.855 160.5 12.1 161 24.8
2009-09-22 12:21:44 51°33.91 2°58.954 163.4 11.7 163 22.5
2009-09-22 12:22:43 51°33.729 2°59.055 160 11.8 162 20.3
2009-09-22 12:23:43 51°33.541 2°59.161 159.5 12 159 18.7
2009-09-22 12:24:43 51°33.356 2°59.266 160.4 12.2 163 15.2
2009-09-22 12:25:43 51°33.168 2°59.376 162.3 12.1 155 13.1
2009-09-22 12:26:44 51°32.979 2°59.489 160.9 11.7 162 28.5
2009-09-22 12:27:43 51°32.798 2°59.595 161.8 11.7 160 32.2
2009-09-22 12:28:43 51°32.618 2°59.697 160.6 11.5 161 32.6
2009-09-22 12:29:43 51°32.437 2°59.79 169.2 11.5 172 33
2009-09-22 12:30:44 51°32.247 2°59.82 180.9 11.2 179 29.6
2009-09-22 12:31:43 51°32.065 2°59.79 192.8 11.2 191 30.5
2009-09-22 12:32:44 51°31.885 2°59.696 205.7 11.2 200 27.5
2009-09-22 12:33:44 51°31.713 2°59.594 205.4 11.1 199 30
2009-09-22 12:34:44 51°31.539 2°59.49 203.3 11.3 200 28.6
2009-09-22 12:35:44 51°31.365 2°59.4 202.1 11.2 197 28.1
2009-09-22 12:36:44 51°31.194 2°59.316 200.7 10.6 195 -999
2009-09-22 12:37:44 51°31.019 2°59.223 202.1 11.3 200 28.5
2009-09-22 12:38:43 51°30.848 2°59.133 202.2 10.7 200 28.4
2009-09-22 12:39:44 51°30.671 2°59.04 203 11.1 199 28.6
2009-09-22 12:40:43 51°30.501 2°58.952 202.6 11 198 28
2009-09-22 12:41:44 51°30.322 2°58.86 201.9 11.2 197 26.4
2009-09-22 12:42:44 51°30.153 2°58.776 202.3 10.7 197 25.2
2009-09-22 12:43:44 51°29.982 2°58.696 201.5 10.5 196 24.6
2009-09-22 12:44:44 51°29.814 2°58.612 202.5 10.6 199 27.1
2009-09-22 12:45:44 51°29.648 2°58.532 202.1 10.7 197 27.3
2009-09-22 12:46:44 51°29.476 2°58.44 201.9 11 196 27.2
2009-09-22 12:47:44 51°29.308 2°58.361 201.7 9.7 196 28.5
2009-09-22 12:48:44 51°29.144 2°58.278 202.8 10.5 199 28.4
2009-09-22 12:49:43 51°28.98 2°58.197 201.5 10.6 196 28.8
2009-09-22 12:50:43 51°28.812 2°58.114 201.1 10.4 196 31
2009-09-22 12:51:44 51°28.645 2°58.032 202.9 10.6 198 30.8
2009-09-22 12:52:43 51°28.479 2°57.952 201.8 10.5 196 31.1
2009-09-22 12:53:44 51°28.307 2°57.868 201.4 10.8 196 30.9
2009-09-22 12:54:43 51°28.141 2°57.789 202.6 10 196 30.7
2009-09-22 12:55:43 51°27.973 2°57.708 202 10.5 195 30.8
2009-09-22 12:56:43 51°27.804 2°57.626 202.6 10.5 197 29
2009-09-22 12:57:43 51°27.636 2°57.539 202.5 10.7 199 28.5
2009-09-22 12:58:43 51°27.466 2°57.459 201.5 10.6 195 27.5
2009-09-22 12:59:43 51°27.298 2°57.378 203.2 10.8 196 26.8
2009-09-22 13:00:44 51°27.126 2°57.297 202.2 10.6 197 24.8
2009-09-22 13:01:43 51°26.959 2°57.22 201.6 10.6 197 23.1
2009-09-22 13:02:44 51°26.787 2°57.152 201.4 10.5 194 20.6
2009-09-22 13:03:43 51°26.621 2°57.087 200.2 10.7 193 18.7
2009-09-22 13:04:43 51°26.448 2°57.021 199.7 11 193 18.7
2009-09-22 13:05:43 51°26.274 2°56.957 199.9 10.6 193 18.7
2009-09-22 13:06:44 51°26.104 2°56.885 206.2 10.3 198 15.9
2009-09-22 13:07:43 51°25.944 2°56.793 208.4 10.5 199 19.7
2009-09-22 13:08:43 51°25.783 2°56.696 207.5 10.5 201 18.3
2009-09-22 13:09:47 51°25.625 2°56.621 206.8 8.7 197 -999
2009-09-22 13:10:46 51°25.483 2°56.548 207.7 9.6 201 22.7
2009-09-22 13:11:44 51°25.331 2°56.462 208 10.1 202 24.7
2009-09-22 13:12:45 51°25.175 2°56.376 208.4 9.9 198 26.2
2009-09-22 13:13:44 51°25.024 2°56.296 207.6 9.7 197 27.6
2009-09-22 13:14:44 51°24.874 2°56.218 207.3 9.6 198 26.3
2009-09-22 13:15:44 51°24.721 2°56.133 208.2 9.5 201 25.4
2009-09-22 13:16:43 51°24.571 2°56.051 207.3 9.7 201 24.5
2009-09-22 13:17:43 51°24.419 2°55.967 207.3 9.6 198 25.3
2009-09-22 13:18:43 51°24.269 2°55.885 207.5 9.3 201 25.5
2009-09-22 13:19:45 51°24.122 2°55.815 207.7 8.9 198 24.6
2009-09-22 13:20:47 51°23.979 2°55.747 208 8.4 198 -999
2009-09-22 13:21:45 51°23.841 2°55.677 206.8 9.1 195 19.3
2009-09-22 13:22:44 51°23.697 2°55.598 207.7 9.5 199 19.4
2009-09-22 13:23:44 51°23.546 2°55.516 207 9.5 198 16.3
2009-09-22 13:24:43 51°23.4 2°55.442 207.4 9.3 198 21.2
2009-09-22 13:25:43 51°23.251 2°55.361 206.9 9.5 197 21.5
2009-09-22 13:26:43 51°23.1 2°55.281 206.8 9.6 197 21.9
2009-09-22 13:27:44 51°22.949 2°55.197 208 9.4 199 21.9
2009-09-22 13:28:43 51°22.805 2°55.122 206.6 9.4 196 22.5
2009-09-22 13:29:44 51°22.655 2°55.046 207.7 9.2 199 21.4
2009-09-22 13:30:43 51°22.508 2°54.97 206.6 9.4 198 21.5
2009-09-22 13:31:43 51°22.359 2°54.891 207.5 9.5 199 20.8
2009-09-22 13:32:43 51°22.208 2°54.814 207.4 9.2 200 20.8
2009-09-22 13:33:43 51°22.059 2°54.741 206.1 9.4 196 22.2
2009-09-22 13:34:43 51°21.911 2°54.679 205.1 9.4 194 20.2
2009-09-22 13:35:43 51°21.761 2°54.614 204.8 9.4 196 20.1
2009-09-22 13:36:43 51°21.61 2°54.544 205.2 9.5 195 19.7
2009-09-22 13:37:43 51°21.464 2°54.478 205.5 9 199 20.2
2009-09-22 13:38:44 51°21.313 2°54.408 205.5 9.4 197 19.5
2009-09-22 13:39:44 51°21.162 2°54.335 205.4 9.6 195 20.3
2009-09-22 13:40:43 51°21.013 2°54.263 205.5 9.5 196 20.3
2009-09-22 13:41:44 51°20.861 2°54.192 204.8 8.8 193 20.1
2009-09-22 13:42:43 51°20.721 2°54.131 204.8 9 194 19.1
2009-09-22 13:43:44 51°20.578 2°54.068 204.4 9 195 19.4
2009-09-22 13:44:43 51°20.433 2°53.999 205.6 9.3 196 19.4
2009-09-22 13:45:44 51°20.284 2°53.93 205 8.8 195 18.7
2009-09-22 13:46:43 51°20.147 2°53.871 207.6 8.5 199 18.5
2009-09-22 13:47:43 51°20.01 2°53.79 209.2 8.8 201 17.8
2009-09-22 13:48:44 51°19.87 2°53.704 209.1 8.8 201 17.4
2009-09-22 13:49:43 51°19.733 2°53.618 209.8 9 201 16.6
2009-09-22 13:50:44 51°19.591 2°53.529 209.8 8.9 201 16.7
2009-09-22 13:51:43 51°19.452 2°53.442 208.7 8.9 200 16
2009-09-22 13:52:44 51°19.311 2°53.355 209.4 9.1 200 15.7
2009-09-22 13:53:43 51°19.175 2°53.275 208.4 8.9 201 15.6
2009-09-22 13:54:44 51°19.034 2°53.184 209.8 9.1 205 15.6
2009-09-22 13:55:44 51°18.895 2°53.094 210.5 9 203 15.3
2009-09-22 13:56:43 51°18.761 2°53.015 209.4 8.3 199 15.3
2009-09-22 13:57:44 51°18.623 2°52.932 206.7 8.5 196 -999
2009-09-22 13:58:42 51°18.493 2°52.849 209.1 9 203 14.2
2009-09-22 13:59:44 51°18.351 2°52.766 209.6 9 203 13.7
2009-09-22 14:00:44 51°18.214 2°52.683 209.1 8.9 200 14
2009-09-22 14:01:44 51°18.076 2°52.592 209.3 8.9 203 13.2
2009-09-22 14:02:43 51°17.941 2°52.515 206.6 8.7 198 14.1
2009-09-22 14:03:43 51°17.802 2°52.44 205.8 8.8 195 13
2009-09-22 14:04:43 51°17.654 2°52.389 196.8 9.3 183 12.9
2009-09-22 14:05:42 51°17.508 2°52.361 195.9 9.3 185 13.4
2009-09-22 14:06:44 51°17.353 2°52.33 196.8 9.4 186 13.5
2009-09-22 14:07:43 51°17.196 2°52.343 179.3 10.1 167 13.4
2009-09-22 14:08:44 51°17.04 2°52.478 156.9 10.5 148 13.1
2009-09-22 14:09:43 51°16.891 2°52.627 157.9 10.8 148 12.8
2009-09-22 14:10:43 51°16.734 2°52.767 161.7 10.8 153 13.3
2009-09-22 14:11:43 51°16.578 2°52.92 161.7 11.2 147 15.1
2009-09-22 14:12:44 51°16.417 2°53.071 161.5 11.2 149 14.9
2009-09-22 14:13:44 51°16.259 2°53.215 162.9 10.8 151 15.1
2009-09-22 14:14:43 51°16.101 2°53.331 172.8 10.4 160 15.3
2009-09-22 14:15:44 51°15.935 2°53.415 173.8 10.4 163 14.6
2009-09-22 14:16:43 51°15.773 2°53.505 173.5 10.5 161 15
2009-09-22 14:17:44 51°15.607 2°53.595 172.4 10.3 163 14.1
2009-09-22 14:18:43 51°15.447 2°53.683 172.3 10.4 162 13.3
2009-09-22 14:19:44 51°15.28 2°53.774 172.7 10.3 161 13.4
2009-09-22 14:20:44 51°15.124 2°53.888 156.8 10.7 144 12.8
2009-09-22 14:21:43 51°14.981 2°54.063 151.9 11.1 143 12.6
2009-09-22 14:22:44 51°14.839 2°54.262 144.3 11.7 129 13.5
2009-09-22 14:23:44 51°14.707 2°54.479 144.1 11.7 133 13.4
2009-09-22 14:24:44 51°14.574 2°54.698 146.3 11.3 138 13.1
2009-09-22 14:25:43 51°14.444 2°54.916 144.6 11.4 131 13.6
2009-09-22 14:26:44 51°14.317 2°55.152 134.4 11 130 14.3
2009-09-22 14:27:44 51°14.197 2°55.348 138.9 10 140 14.3
2009-09-22 14:28:44 51°14.058 2°55.464 155.7 9.3 155 14.1
2009-09-22 14:29:44 51°13.946 2°55.545 156.1 7 155 14.6
2009-09-22 14:30:43 51°13.842 2°55.62 155.4 7 154 14.8
2009-09-22 14:31:44 51°13.756 2°55.716 134.7 5.6 134 14.5
2009-09-22 14:32:43 51°13.704 2°55.818 125.9 4.5 126 14.4
2009-09-22 14:33:44 51°13.67 2°55.912 113.6 3.5 113 13.6
2009-09-22 14:34:43 51°13.661 2°55.959 115.3 0.5 97 11.1